createdAt,value
2018-02-15T00:00:14.012Z,9.30
2018-02-15T00:02:42.319Z,9.30
2018-02-15T00:05:10.648Z,9.47
2018-02-15T00:07:38.960Z,8.88
2018-02-15T00:10:07.290Z,10.17
2018-02-15T00:12:35.606Z,9.00
2018-02-15T00:15:03.936Z,9.45
2018-02-15T00:17:32.251Z,9.63
2018-02-15T00:20:00.594Z,9.23
2018-02-15T00:22:28.911Z,9.37
2018-02-15T00:24:57.234Z,8.87
2018-02-15T00:27:25.547Z,10.17
2018-02-15T00:29:53.882Z,10.45
2018-02-15T00:32:22.200Z,9.85
2018-02-15T00:34:50.527Z,8.88
2018-02-15T00:37:18.835Z,9.10
2018-02-15T00:39:47.164Z,9.52
2018-02-15T00:42:15.478Z,9.00
2018-02-15T00:44:43.799Z,8.48
2018-02-15T00:47:12.116Z,8.72
2018-02-15T00:49:40.459Z,10.20
2018-02-15T00:52:08.775Z,8.73
2018-02-15T00:54:37.110Z,8.73
2018-02-15T00:57:05.423Z,9.07
2018-02-15T00:59:33.754Z,9.30
2018-02-15T01:02:02.062Z,8.95
2018-02-15T01:04:30.395Z,8.42
2018-02-15T01:06:58.704Z,8.88
2018-02-15T01:09:27.030Z,9.42
2018-02-15T01:11:55.339Z,7.70
2018-02-15T01:14:23.671Z,8.32
2018-02-15T01:16:51.975Z,8.10
2018-02-15T01:19:20.303Z,8.45
2018-02-15T01:21:48.624Z,7.78
2018-02-15T01:24:16.958Z,7.73
2018-02-15T01:26:45.260Z,7.65
2018-02-15T01:29:12.826Z,8.12
2018-02-15T01:31:41.131Z,7.58
2018-02-15T01:34:09.471Z,7.98
2018-02-15T01:36:37.781Z,7.83
2018-02-15T01:39:06.086Z,7.58
2018-02-15T01:41:34.410Z,8.08
2018-02-15T01:44:02.716Z,8.15
2018-02-15T01:46:31.050Z,7.68
2018-02-15T01:48:59.355Z,6.85
2018-02-15T01:51:27.679Z,8.33
2018-02-15T01:53:55.990Z,8.18
2018-02-15T01:56:23.552Z,7.50
2018-02-15T01:58:51.851Z,7.33
2018-02-15T02:01:20.182Z,8.07
2018-02-15T02:03:48.491Z,7.87
2018-02-15T02:06:16.830Z,8.45
2018-02-15T02:08:45.140Z,8.07
2018-02-15T02:11:13.478Z,8.48
2018-02-15T02:13:41.787Z,8.15
2018-02-15T02:16:10.115Z,8.95
2018-02-15T02:18:38.426Z,9.67
2018-02-15T02:21:06.762Z,8.08
2018-02-15T02:23:35.066Z,9.58
2018-02-15T02:26:03.401Z,10.58
2018-02-15T02:28:31.714Z,9.72
2018-02-15T02:31:00.041Z,9.78
2018-02-15T02:33:28.356Z,10.35
2018-02-15T02:35:56.698Z,10.83
2018-02-15T02:38:25.020Z,10.88
2018-02-15T02:40:53.363Z,12.00
2018-02-15T02:43:21.685Z,11.75
2018-02-15T02:45:50.015Z,11.78
2018-02-15T02:48:18.327Z,10.92
2018-02-15T02:50:46.662Z,11.82
2018-02-15T02:53:14.967Z,12.87
2018-02-15T02:55:43.299Z,13.50
2018-02-15T02:58:11.616Z,12.05
2018-02-15T03:00:39.956Z,13.02
2018-02-15T03:03:08.269Z,11.30
2018-02-15T03:05:36.603Z,12.37
2018-02-15T03:08:04.918Z,16.92
2018-02-15T03:10:33.256Z,15.12
2018-02-15T03:13:01.574Z,12.95
2018-02-15T03:15:29.945Z,11.87
2018-02-15T03:17:58.280Z,12.82
2018-02-15T03:20:26.620Z,11.43
2018-02-15T03:22:54.933Z,14.95
2018-02-15T03:25:23.246Z,14.33
2018-02-15T03:27:51.592Z,19.88
2018-02-15T03:30:19.905Z,11.43
2018-02-15T03:32:48.247Z,13.30
2018-02-15T03:35:16.560Z,12.32
2018-02-15T03:37:44.896Z,13.27
2018-02-15T03:40:13.211Z,10.88
2018-02-15T03:42:41.546Z,11.55
2018-02-15T03:45:09.858Z,13.07
2018-02-15T03:47:38.190Z,12.07
2018-02-15T03:50:06.512Z,12.50
2018-02-15T03:52:34.846Z,10.35
2018-02-15T03:55:03.155Z,11.73
2018-02-15T03:57:31.491Z,14.08
2018-02-15T03:59:59.798Z,10.92
2018-02-15T04:02:28.131Z,12.82
2018-02-15T04:04:56.442Z,12.63
2018-02-15T04:07:24.782Z,11.43
2018-02-15T04:09:53.090Z,12.83
2018-02-15T04:12:21.466Z,12.00
2018-02-15T04:14:49.763Z,11.77
2018-02-15T04:17:17.331Z,11.30
2018-02-15T04:19:45.646Z,11.68
2018-02-15T04:22:13.992Z,12.17
2018-02-15T04:24:42.388Z,12.17
2018-02-15T04:27:10.726Z,10.32
2018-02-15T04:29:39.051Z,10.75
2018-02-15T04:32:07.423Z,11.42
2018-02-15T04:34:35.744Z,12.27
2018-02-15T04:37:04.083Z,11.05
2018-02-15T04:39:32.404Z,11.82
2018-02-15T04:42:00.730Z,10.75
2018-02-15T04:44:29.046Z,10.90
2018-02-15T04:46:57.385Z,10.15
2018-02-15T04:49:25.695Z,11.98
2018-02-15T04:51:54.027Z,12.38
2018-02-15T04:54:22.338Z,12.20
2018-02-15T04:56:50.690Z,11.73
2018-02-15T04:59:19.007Z,9.77
2018-02-15T05:01:47.339Z,11.72
2018-02-15T05:04:15.647Z,11.62
2018-02-15T05:06:43.964Z,12.17
2018-02-15T05:09:12.302Z,11.82
2018-02-15T05:11:40.615Z,12.12
2018-02-15T05:14:08.963Z,10.88
2018-02-15T05:16:37.277Z,12.37
2018-02-15T05:19:05.620Z,12.65
2018-02-15T05:21:33.931Z,11.65
2018-02-15T05:24:02.263Z,12.50
2018-02-15T05:26:30.578Z,12.92
2018-02-15T05:28:58.914Z,11.58
2018-02-15T05:31:27.229Z,12.92
2018-02-15T05:33:54.802Z,11.08
2018-02-15T05:36:23.115Z,11.52
2018-02-15T05:38:51.462Z,10.75
2018-02-15T05:41:19.775Z,10.38
2018-02-15T05:43:48.106Z,11.08
2018-02-15T05:46:16.423Z,10.52
2018-02-15T05:48:44.754Z,9.72
2018-02-15T05:51:13.070Z,11.18
2018-02-15T05:53:41.436Z,10.38
2018-02-15T05:56:09.755Z,10.22
2018-02-15T05:58:38.090Z,8.95
2018-02-15T06:01:06.398Z,9.82
2018-02-15T06:03:34.734Z,9.12
2018-02-15T06:06:03.087Z,8.10
2018-02-15T06:08:31.507Z,9.88
2018-02-15T06:10:59.896Z,9.90
2018-02-15T06:13:28.422Z,9.38
2018-02-15T06:15:56.871Z,9.23
2018-02-15T06:18:25.539Z,10.12
2018-02-15T06:20:54.105Z,9.27
2018-02-15T06:23:22.546Z,9.62
2018-02-15T06:25:50.868Z,9.77
2018-02-15T06:28:19.199Z,9.75
2018-02-15T06:30:47.544Z,9.95
2018-02-15T06:33:15.922Z,10.23
2018-02-15T06:35:44.353Z,10.52
2018-02-15T06:38:12.855Z,9.47
2018-02-15T06:40:41.208Z,10.88
2018-02-15T06:43:09.545Z,9.23
2018-02-15T06:45:37.867Z,10.83
2018-02-15T06:48:06.200Z,9.73
2018-02-15T06:50:34.535Z,9.60
2018-02-15T06:53:02.854Z,10.68
2018-02-15T06:55:31.190Z,9.40
2018-02-15T06:57:59.507Z,11.17
2018-02-15T07:00:27.838Z,9.47
2018-02-15T07:02:56.148Z,8.87
2018-02-15T07:05:24.514Z,7.85
2018-02-15T07:07:52.810Z,8.82
2018-02-15T07:10:21.147Z,8.52
2018-02-15T07:12:49.459Z,7.98
2018-02-15T07:15:17.781Z,8.33
2018-02-15T07:17:46.091Z,7.82
2018-02-15T07:20:14.422Z,8.15
2018-02-15T07:22:42.737Z,7.25
2018-02-15T07:25:11.075Z,8.78
2018-02-15T07:27:39.387Z,8.07
2018-02-15T07:30:07.736Z,7.78
2018-02-15T07:32:36.038Z,7.52
2018-02-15T07:35:04.377Z,7.42
2018-02-15T07:37:32.713Z,7.35
2018-02-15T07:40:01.067Z,9.12
2018-02-15T07:42:29.458Z,7.13
2018-02-15T07:44:57.874Z,8.18
2018-02-15T07:47:26.184Z,7.20
2018-02-15T07:49:54.547Z,7.88
2018-02-15T07:52:22.910Z,6.87
2018-02-15T07:54:51.254Z,7.75
2018-02-15T07:57:19.561Z,7.00
2018-02-15T07:59:47.884Z,7.63
2018-02-15T08:02:16.183Z,7.02
2018-02-15T08:04:44.525Z,7.97
2018-02-15T08:07:12.840Z,6.77
2018-02-15T08:09:41.179Z,7.50
2018-02-15T08:12:09.479Z,6.80
2018-02-15T08:14:37.808Z,7.73
2018-02-15T08:17:06.111Z,6.53
2018-02-15T08:19:34.438Z,6.22
2018-02-15T08:22:02.751Z,7.12
2018-02-15T08:24:31.088Z,6.52
2018-02-15T08:26:59.395Z,6.52
2018-02-15T08:29:26.975Z,11.27
2018-02-15T08:31:55.336Z,7.48
2018-02-15T08:34:23.642Z,7.12
2018-02-15T08:36:51.976Z,6.52
2018-02-15T08:39:20.287Z,13.17
2018-02-15T08:41:48.622Z,5.23
2018-02-15T08:44:16.934Z,28.12
2018-02-15T08:46:45.379Z,6.15
2018-02-15T08:49:13.695Z,11.35
2018-02-15T08:51:42.029Z,6.38
2018-02-15T08:54:10.342Z,5.52
2018-02-15T08:56:38.679Z,14.45
2018-02-15T08:59:06.993Z,7.40
2018-02-15T09:01:35.324Z,9.03
2018-02-15T09:04:03.631Z,4.60
2018-02-15T09:06:31.959Z,4.73
2018-02-15T09:09:00.274Z,4.57
2018-02-15T09:11:28.603Z,4.22
2018-02-15T09:13:56.978Z,7.38
2018-02-15T09:16:25.311Z,7.40
2018-02-15T09:18:53.638Z,22.95
2018-02-15T09:21:21.976Z,18.92
2018-02-15T09:23:50.321Z,8.05
2018-02-15T09:26:18.648Z,5.58
2018-02-15T09:28:46.962Z,7.30
2018-02-15T09:31:15.291Z,4.77
2018-02-15T09:33:43.600Z,11.05
2018-02-15T09:36:11.930Z,7.10
2018-02-15T09:38:40.239Z,5.40
2018-02-15T09:41:08.573Z,4.03
2018-02-15T09:43:36.891Z,10.22
2018-02-15T09:46:05.244Z,9.75
2018-02-15T09:48:33.557Z,4.00
2018-02-15T09:51:01.896Z,4.53
2018-02-15T09:53:30.202Z,4.18
2018-02-15T09:55:58.530Z,4.45
2018-02-15T09:58:26.841Z,5.68
2018-02-15T10:00:55.168Z,8.65
2018-02-15T10:03:23.511Z,14.90
2018-02-15T10:05:51.834Z,8.83
2018-02-15T10:08:20.157Z,4.67
2018-02-15T10:10:48.497Z,3.52
2018-02-15T10:13:16.809Z,4.05
2018-02-15T10:15:45.145Z,3.82
2018-02-15T10:18:13.446Z,3.90
2018-02-15T10:20:41.756Z,4.02
2018-02-15T10:23:10.084Z,3.85
2018-02-15T10:25:38.407Z,4.25
2018-02-15T10:28:06.751Z,4.05
2018-02-15T10:30:35.074Z,4.00
2018-02-15T10:33:03.403Z,5.75
2018-02-15T10:35:31.716Z,16.37
2018-02-15T10:38:00.083Z,30.53
2018-02-15T10:40:28.396Z,14.45
2018-02-15T10:42:56.715Z,5.57
2018-02-15T10:45:25.027Z,33.30
2018-02-15T10:47:53.350Z,7.00
2018-02-15T10:50:21.656Z,5.92
2018-02-15T10:52:49.994Z,12.18
2018-02-15T10:55:18.306Z,6.10
2018-02-15T10:57:46.634Z,8.30
2018-02-15T11:00:14.944Z,9.85
2018-02-15T11:02:43.282Z,4.55
2018-02-15T11:05:17.470Z,4.93
2018-02-15T11:07:45.803Z,8.20
2018-02-15T11:10:14.106Z,6.10
2018-02-15T11:12:42.433Z,5.22
2018-02-15T11:15:10.740Z,5.37
2018-02-15T11:17:39.067Z,6.47
2018-02-15T11:20:07.390Z,11.98
2018-02-15T11:22:35.743Z,5.63
2018-02-15T11:25:04.064Z,4.43
2018-02-15T11:27:32.411Z,4.50
2018-02-15T11:30:00.964Z,10.70
2018-02-15T11:32:29.325Z,4.00
2018-02-15T11:34:57.629Z,4.37
2018-02-15T11:37:25.955Z,5.13
2018-02-15T11:39:54.291Z,4.20
2018-02-15T11:42:22.616Z,4.25
2018-02-15T11:44:50.930Z,3.50
2018-02-15T11:47:19.263Z,4.93
2018-02-15T11:49:47.574Z,4.03
2018-02-15T11:52:15.915Z,3.63
2018-02-15T11:54:44.231Z,3.60
2018-02-15T11:57:12.568Z,3.60
2018-02-15T11:59:40.881Z,3.12
2018-02-15T12:02:09.235Z,3.40
2018-02-15T12:04:37.568Z,3.28
2018-02-15T12:07:05.903Z,3.10
2018-02-15T12:09:34.235Z,3.33
2018-02-15T12:12:02.562Z,3.18
2018-02-15T12:14:30.896Z,3.32
2018-02-15T12:16:59.211Z,3.27
2018-02-15T12:19:27.555Z,3.18
2018-02-15T12:21:55.874Z,3.70
2018-02-15T12:24:23.443Z,4.02
2018-02-15T12:26:51.764Z,3.30
2018-02-15T12:29:20.094Z,3.38
2018-02-15T12:31:48.407Z,3.28
2018-02-15T12:34:16.746Z,3.42
2018-02-15T12:36:45.059Z,3.37
2018-02-15T12:39:13.395Z,3.17
2018-02-15T12:41:41.706Z,3.05
2018-02-15T12:44:10.035Z,3.28
2018-02-15T12:46:38.363Z,3.15
2018-02-15T12:49:06.707Z,3.17
2018-02-15T12:51:35.018Z,2.92
2018-02-15T12:54:02.624Z,2.83
2018-02-15T12:56:30.924Z,3.17
2018-02-15T12:58:59.255Z,2.90
2018-02-15T13:01:27.562Z,3.18
2018-02-15T13:03:55.904Z,2.98
2018-02-15T13:06:24.213Z,2.72
2018-02-15T13:08:52.543Z,2.85
2018-02-15T13:11:20.851Z,2.92
2018-02-15T13:13:49.180Z,4.63
2018-02-15T13:16:29.318Z,3.02
2018-02-15T13:19:09.377Z,2.98
2018-02-15T13:21:37.686Z,2.48
2018-02-15T13:24:06.020Z,2.92
2018-02-15T13:26:34.331Z,2.72
2018-02-15T13:29:02.667Z,34.87
2018-02-15T13:31:30.995Z,15.53
2018-02-15T13:33:59.327Z,3.60
2018-02-15T13:36:27.647Z,3.75
2018-02-15T13:38:55.993Z,14.20
2018-02-15T13:41:24.303Z,3.97
2018-02-15T13:43:52.655Z,17.53
2018-02-15T13:46:20.977Z,2.87
2018-02-15T13:48:49.327Z,3.22
2018-02-15T13:51:17.636Z,4.92
2018-02-15T13:53:45.948Z,2.40
2018-02-15T13:56:14.283Z,2.78
2018-02-15T13:58:42.599Z,2.68
2018-02-15T14:01:10.935Z,2.47
2018-02-15T14:03:39.246Z,2.43
2018-02-15T14:06:07.586Z,2.40
2018-02-15T14:08:35.901Z,2.40
2018-02-15T14:11:04.236Z,2.30
2018-02-15T14:13:32.548Z,2.13
2018-02-15T14:16:00.888Z,2.50
2018-02-15T14:18:29.203Z,2.65
2018-02-15T14:20:57.544Z,2.50
2018-02-15T14:23:25.860Z,2.60
2018-02-15T14:25:54.201Z,2.33
2018-02-15T14:28:22.516Z,2.88
2018-02-15T14:30:50.859Z,2.73
2018-02-15T14:33:19.179Z,2.70
2018-02-15T14:35:47.515Z,3.55
2018-02-15T14:38:15.870Z,2.82
2018-02-15T14:40:44.297Z,2.95
2018-02-15T14:43:12.585Z,3.10
2018-02-15T14:45:40.919Z,3.33
2018-02-15T14:48:09.240Z,3.15
2018-02-15T14:50:37.574Z,6.03
2018-02-15T14:53:05.883Z,3.93
2018-02-15T14:55:34.218Z,3.95
2018-02-15T14:58:02.541Z,4.20
2018-02-15T15:00:30.893Z,3.53
2018-02-15T15:02:59.219Z,3.92
2018-02-15T15:05:27.557Z,3.62
2018-02-15T15:07:55.867Z,4.05
2018-02-15T15:10:24.212Z,4.07
2018-02-15T15:12:52.530Z,3.43
2018-02-15T15:15:20.866Z,3.83
2018-02-15T15:17:49.188Z,4.77
2018-02-15T15:20:17.534Z,3.72
2018-02-15T15:22:45.847Z,4.25
2018-02-15T15:25:14.179Z,6.17
2018-02-15T15:27:42.511Z,4.25
2018-02-15T15:30:10.837Z,5.95
2018-02-15T15:32:39.156Z,5.25
2018-02-15T15:35:07.490Z,4.88
2018-02-15T15:37:35.807Z,5.08
2018-02-15T15:40:04.113Z,4.67
2018-02-15T15:42:32.446Z,5.37
2018-02-15T15:45:00.755Z,4.92
2018-02-15T15:47:29.095Z,8.67
2018-02-15T15:49:57.412Z,7.58
2018-02-15T15:52:25.747Z,7.60
2018-02-15T15:54:54.056Z,6.12
2018-02-15T15:57:22.411Z,4.52
2018-02-15T15:59:50.763Z,9.20
2018-02-15T16:02:19.082Z,9.37
2018-02-15T16:04:47.395Z,9.05
2018-02-15T16:07:15.735Z,8.38
2018-02-15T16:09:44.056Z,5.20
2018-02-15T16:12:12.402Z,7.78
2018-02-15T16:14:40.751Z,8.13
2018-02-15T16:17:09.147Z,5.57
2018-02-15T16:19:37.474Z,6.03
2018-02-15T16:22:05.815Z,8.72
2018-02-15T16:24:34.133Z,27.52
2018-02-15T16:27:02.482Z,14.38
2018-02-15T16:29:30.792Z,11.72
2018-02-15T16:31:59.130Z,6.48
2018-02-15T16:34:27.448Z,9.93
2018-02-15T16:36:55.804Z,6.73
2018-02-15T16:39:24.117Z,5.93
2018-02-15T16:41:52.445Z,7.57
2018-02-15T16:44:20.764Z,7.53
2018-02-15T16:46:49.098Z,9.23
2018-02-15T16:49:17.415Z,19.37
2018-02-15T16:51:45.759Z,42.40
2018-02-15T16:54:14.074Z,19.40
2018-02-15T16:56:42.415Z,26.95
2018-02-15T16:59:10.744Z,9.68
2018-02-15T17:01:39.084Z,15.33
2018-02-15T17:04:07.411Z,16.25
2018-02-15T17:06:35.743Z,18.67
2018-02-15T17:09:04.243Z,17.57
2018-02-15T17:11:32.591Z,16.25
2018-02-15T17:14:00.908Z,17.08
2018-02-15T17:16:29.258Z,20.78
2018-02-15T17:18:57.579Z,15.07
2018-02-15T17:21:25.923Z,20.88
2018-02-15T17:23:54.243Z,16.43
2018-02-15T17:26:22.554Z,19.97
2018-02-15T17:28:50.886Z,18.78
2018-02-15T17:31:19.199Z,15.32
2018-02-15T17:33:47.544Z,12.53
2018-02-15T17:36:15.874Z,22.13
2018-02-15T17:38:44.210Z,16.60
2018-02-15T17:41:12.527Z,18.42
2018-02-15T17:43:40.876Z,21.07
2018-02-15T17:46:09.203Z,24.30
2018-02-15T17:48:37.573Z,21.67
2018-02-15T17:51:05.900Z,22.73
2018-02-15T17:53:34.250Z,21.55
2018-02-15T17:56:02.576Z,23.73
2018-02-15T17:58:30.916Z,21.48
2018-02-15T18:00:59.249Z,19.98
2018-02-15T18:03:27.631Z,12.80
2018-02-15T18:05:55.955Z,16.92
2018-02-15T18:08:24.297Z,22.00
2018-02-15T18:10:52.618Z,17.08
2018-02-15T18:13:20.947Z,16.45
2018-02-15T18:15:49.276Z,18.72
2018-02-15T18:18:17.609Z,18.88
2018-02-15T18:20:45.927Z,24.97
2018-02-15T18:23:14.262Z,24.08
2018-02-15T18:25:42.603Z,21.03
2018-02-15T18:28:10.941Z,20.22
2018-02-15T18:30:39.260Z,20.47
2018-02-15T18:33:07.604Z,15.68
2018-02-15T18:35:35.924Z,16.47
2018-02-15T18:38:04.258Z,17.02
2018-02-15T18:40:32.573Z,23.65
2018-02-15T18:43:00.906Z,33.00
2018-02-15T18:45:29.227Z,25.07
2018-02-15T18:47:57.561Z,24.83
2018-02-15T18:50:25.883Z,29.05
2018-02-15T18:52:53.457Z,24.17
2018-02-15T18:55:21.786Z,22.60
2018-02-15T18:57:50.127Z,22.70
2018-02-15T19:00:18.436Z,40.33
2018-02-15T19:02:46.785Z,29.08
2018-02-15T19:05:15.110Z,25.17
2018-02-15T19:07:43.419Z,26.53
2018-02-15T19:10:11.764Z,24.95
2018-02-15T19:12:40.080Z,21.82
2018-02-15T19:15:08.423Z,19.02
2018-02-15T19:17:36.741Z,23.00
2018-02-15T19:20:05.084Z,29.90
2018-02-15T19:22:33.395Z,39.18
2018-02-15T19:25:01.727Z,30.27
2018-02-15T19:27:30.103Z,21.08
2018-02-15T19:29:58.451Z,32.05
2018-02-15T19:32:26.767Z,19.32
2018-02-15T19:34:55.111Z,20.62
2018-02-15T19:37:23.439Z,21.93
2018-02-15T19:39:51.778Z,25.52
2018-02-15T19:42:20.157Z,23.88
2018-02-15T19:44:48.511Z,21.23
2018-02-15T19:47:16.850Z,20.98
2018-02-15T19:49:45.186Z,22.13
2018-02-15T19:52:13.503Z,21.03
2018-02-15T19:54:41.888Z,16.88
2018-02-15T19:57:10.205Z,15.37
2018-02-15T19:59:38.824Z,14.25
2018-02-15T20:02:07.135Z,14.80
2018-02-15T20:04:35.470Z,18.57
2018-02-15T20:07:03.928Z,16.20
2018-02-15T20:09:32.306Z,18.68
2018-02-15T20:12:00.632Z,19.55
2018-02-15T20:14:28.983Z,19.43
2018-02-15T20:16:57.312Z,22.60
2018-02-15T20:19:25.638Z,24.07
2018-02-15T20:21:53.960Z,21.03
2018-02-15T20:24:22.325Z,27.85
2018-02-15T20:26:56.456Z,23.30
2018-02-15T20:29:24.798Z,23.48
2018-02-15T20:31:53.148Z,40.30
2018-02-15T20:34:21.498Z,35.22
2018-02-15T20:36:49.807Z,31.82
2018-02-15T20:39:23.897Z,30.15
2018-02-15T20:41:52.204Z,29.45
2018-02-15T20:44:20.535Z,27.57
2018-02-15T20:46:48.856Z,46.97
2018-02-15T20:49:22.941Z,31.35
2018-02-15T20:51:56.903Z,26.03
2018-02-15T20:54:30.885Z,25.63
2018-02-15T20:56:59.231Z,32.08
2018-02-15T20:59:27.552Z,35.40
2018-02-15T21:01:55.891Z,38.52
2018-02-15T21:04:24.212Z,32.67
2018-02-15T21:06:52.556Z,31.58
2018-02-15T21:09:20.867Z,33.62
2018-02-15T21:11:49.207Z,29.68
2018-02-15T21:14:17.528Z,26.65
2018-02-15T21:16:45.857Z,29.85
2018-02-15T21:19:14.172Z,24.23
2018-02-15T21:21:42.516Z,26.10
2018-02-15T21:24:10.830Z,26.52
2018-02-15T21:26:39.166Z,25.12
2018-02-15T21:29:07.475Z,24.88
2018-02-15T21:31:35.840Z,28.35
2018-02-15T21:34:04.163Z,28.37
2018-02-15T21:36:32.499Z,30.58
2018-02-15T21:39:00.815Z,38.63
2018-02-15T21:41:29.151Z,39.05
2018-02-15T21:43:57.464Z,29.52
2018-02-15T21:46:25.806Z,30.55
2018-02-15T21:48:54.145Z,27.75
2018-02-15T21:51:22.496Z,26.98
2018-02-15T21:53:50.811Z,23.58
2018-02-15T21:56:19.139Z,39.30
2018-02-15T21:58:47.454Z,75.72
2018-02-15T22:01:15.823Z,28.28
2018-02-15T22:03:44.134Z,28.18
2018-02-15T22:06:12.467Z,21.25
2018-02-15T22:08:40.775Z,19.92
2018-02-15T22:11:09.111Z,35.53
2018-02-15T22:13:37.419Z,23.85
2018-02-15T22:16:05.755Z,21.47
2018-02-15T22:18:34.068Z,21.88
2018-02-15T22:21:02.406Z,21.55
2018-02-15T22:23:30.719Z,33.20
2018-02-15T22:25:59.102Z,22.98
2018-02-15T22:28:27.394Z,20.13
2018-02-15T22:30:55.728Z,32.00
2018-02-15T22:33:24.046Z,24.20
2018-02-15T22:35:52.382Z,51.20
2018-02-15T22:38:20.703Z,33.27
2018-02-15T22:40:49.051Z,18.28
2018-02-15T22:43:17.364Z,17.28
2018-02-15T22:45:45.674Z,16.22
2018-02-15T22:48:14.013Z,18.05
2018-02-15T22:50:42.330Z,16.52
2018-02-15T22:53:10.662Z,16.42
2018-02-15T22:55:38.987Z,14.90
2018-02-15T22:58:07.315Z,13.42
2018-02-15T23:00:35.629Z,13.80
2018-02-15T23:03:03.968Z,14.67
2018-02-15T23:05:32.290Z,13.57
2018-02-15T23:08:00.644Z,36.00
2018-02-15T23:10:28.946Z,19.53
2018-02-15T23:12:57.280Z,16.63
2018-02-15T23:15:25.596Z,18.63
2018-02-15T23:17:53.926Z,15.67
2018-02-15T23:20:22.245Z,16.32
2018-02-15T23:22:50.575Z,17.50
2018-02-15T23:25:18.890Z,16.10
2018-02-15T23:27:47.228Z,14.75
2018-02-15T23:30:17.515Z,14.52
2018-02-15T23:32:45.844Z,14.38
2018-02-15T23:35:14.155Z,14.25
2018-02-15T23:37:42.492Z,13.58
2018-02-15T23:40:10.803Z,13.58
2018-02-15T23:42:39.153Z,13.33
2018-02-15T23:45:07.462Z,15.90
2018-02-15T23:47:35.795Z,13.23
2018-02-15T23:50:04.107Z,12.23
2018-02-15T23:52:32.442Z,14.23
2018-02-15T23:55:00.751Z,11.48
2018-02-15T23:57:29.079Z,13.47
2018-02-15T23:59:57.399Z,13.23
